createdAt,value
2023-05-15T00:01:47.790Z,12.62
2023-05-15T00:04:14.915Z,12.66
2023-05-15T00:06:43.387Z,12.70
2023-05-15T00:09:11.728Z,12.74
2023-05-15T00:11:39.184Z,12.79
2023-05-15T00:14:06.739Z,12.68
2023-05-15T00:16:34.197Z,12.69
2023-05-15T00:19:07.897Z,12.68
2023-05-15T00:21:35.060Z,12.63
2023-05-15T00:24:02.598Z,12.55
2023-05-15T00:26:32.143Z,12.52
2023-05-15T00:28:59.965Z,12.53
2023-05-15T00:31:27.666Z,12.58
2023-05-15T00:33:56.005Z,12.53
2023-05-15T00:36:26.228Z,12.61
2023-05-15T00:38:59.641Z,12.67
2023-05-15T00:41:29.052Z,12.63
2023-05-15T00:43:58.218Z,12.61
2023-05-15T00:46:28.671Z,12.54
2023-05-15T00:48:57.107Z,12.62
2023-05-15T00:51:27.193Z,12.54
2023-05-15T00:53:56.972Z,12.58
2023-05-15T00:56:25.271Z,12.61
2023-05-15T00:58:54.424Z,12.48
2023-05-15T01:01:22.176Z,12.59
2023-05-15T01:03:49.335Z,12.60
2023-05-15T01:06:16.440Z,12.48
2023-05-15T01:08:49.455Z,12.42
2023-05-15T01:11:18.613Z,12.52
2023-05-15T01:13:47.946Z,12.58
2023-05-15T01:16:15.587Z,12.63
2023-05-15T01:18:45.089Z,12.58
2023-05-15T01:21:35.895Z,12.53
2023-05-15T01:24:43.390Z,12.57
2023-05-15T01:27:52.878Z,12.36
2023-05-15T01:30:20.306Z,12.45
2023-05-15T01:33:18.708Z,12.50
2023-05-15T01:36:06.384Z,12.49
2023-05-15T01:38:39.593Z,12.51
2023-05-15T01:41:23.025Z,12.35
2023-05-15T01:43:56.900Z,12.37
2023-05-15T01:46:26.084Z,12.44
2023-05-15T01:48:55.429Z,12.48
2023-05-15T01:51:25.258Z,12.53
2023-05-15T01:53:53.428Z,12.59
2023-05-15T01:56:23.413Z,12.59
2023-05-15T01:58:52.788Z,12.63
2023-05-15T02:01:20.382Z,12.62
2023-05-15T02:03:48.192Z,12.59
2023-05-15T02:06:16.816Z,12.65
2023-05-15T02:08:45.654Z,12.66
2023-05-15T02:11:14.284Z,12.65
2023-05-15T02:13:43.686Z,12.68
2023-05-15T02:16:11.557Z,12.70
2023-05-15T02:18:38.839Z,12.70
2023-05-15T02:21:06.296Z,12.73
2023-05-15T02:23:35.240Z,12.68
2023-05-15T02:26:23.424Z,12.59
2023-05-15T02:29:06.166Z,12.57
2023-05-15T02:31:59.434Z,12.65
2023-05-15T02:35:03.711Z,12.53
2023-05-15T02:37:35.429Z,12.54
2023-05-15T02:40:07.361Z,12.52
2023-05-15T02:42:36.605Z,12.51
2023-05-15T02:45:06.060Z,12.46
2023-05-15T02:47:34.302Z,12.46
2023-05-15T02:50:02.982Z,12.40
2023-05-15T02:52:30.623Z,12.50
2023-05-15T02:54:58.867Z,12.55
2023-05-15T02:57:27.590Z,12.52
2023-05-15T02:59:56.369Z,12.47
2023-05-15T03:02:24.057Z,12.43
2023-05-15T03:04:54.356Z,12.45
2023-05-15T03:07:21.995Z,12.49
2023-05-15T03:09:49.271Z,12.44
2023-05-15T03:12:23.406Z,12.52
2023-05-15T03:14:50.949Z,12.48
2023-05-15T03:17:18.363Z,12.53
2023-05-15T03:19:46.231Z,12.63
2023-05-15T03:22:13.950Z,12.58
2023-05-15T03:24:47.554Z,12.54
2023-05-15T03:27:16.137Z,12.45
2023-05-15T03:29:44.961Z,12.44
2023-05-15T03:32:14.550Z,12.58
2023-05-15T03:34:41.769Z,12.61
2023-05-15T03:37:09.207Z,12.61
2023-05-15T03:39:37.738Z,12.62
2023-05-15T03:42:06.515Z,12.64
2023-05-15T03:44:35.377Z,12.58
2023-05-15T03:47:02.926Z,12.59
2023-05-15T03:49:30.096Z,12.54
2023-05-15T03:51:58.261Z,12.57
2023-05-15T03:54:25.808Z,12.61
2023-05-15T03:56:59.251Z,12.59
2023-05-15T03:59:26.532Z,12.59
2023-05-15T04:02:04.224Z,12.64
2023-05-15T04:04:33.224Z,12.68
2023-05-15T04:07:01.176Z,12.68
2023-05-15T04:09:29.707Z,12.76
2023-05-15T04:12:00.273Z,12.78
2023-05-15T04:14:27.775Z,12.80
2023-05-15T04:16:56.172Z,12.82
2023-05-15T04:19:23.743Z,12.86
2023-05-15T04:21:52.248Z,12.84
2023-05-15T04:24:19.669Z,12.91
2023-05-15T04:26:47.353Z,12.87
2023-05-15T04:29:15.526Z,12.97
2023-05-15T04:31:43.092Z,12.98
2023-05-15T04:34:10.455Z,13.03
2023-05-15T04:36:40.599Z,13.00
2023-05-15T04:39:10.224Z,13.04
2023-05-15T04:41:37.445Z,13.03
2023-05-15T04:44:05.042Z,13.22
2023-05-15T04:46:35.143Z,13.20
2023-05-15T04:49:02.418Z,13.14
2023-05-15T04:51:29.861Z,13.14
2023-05-15T04:53:57.258Z,13.28
2023-05-15T04:56:24.709Z,13.34
2023-05-15T04:58:53.282Z,13.42
2023-05-15T05:01:20.776Z,13.50
2023-05-15T05:03:47.790Z,13.53
2023-05-15T05:06:15.049Z,13.57
2023-05-15T05:08:42.537Z,13.67
2023-05-15T05:11:10.105Z,13.61
2023-05-15T05:13:37.503Z,13.71
2023-05-15T05:16:05.250Z,13.75
2023-05-15T05:18:34.499Z,13.70
2023-05-15T05:21:04.274Z,13.67
2023-05-15T05:23:37.537Z,13.66
2023-05-15T05:26:06.371Z,13.74
2023-05-15T05:28:34.076Z,13.77
2023-05-15T05:31:12.263Z,13.62
2023-05-15T05:33:39.646Z,13.61
2023-05-15T05:36:07.563Z,13.50
2023-05-15T05:38:37.161Z,13.46
2023-05-15T05:41:04.911Z,13.41
2023-05-15T05:43:34.044Z,13.23
2023-05-15T05:46:02.586Z,13.21
2023-05-15T05:48:31.145Z,13.10
2023-05-15T05:50:58.742Z,13.15
2023-05-15T05:53:28.128Z,13.11
2023-05-15T05:55:55.565Z,13.08
2023-05-15T05:58:25.952Z,12.95
2023-05-15T06:00:54.536Z,12.90
2023-05-15T06:03:23.319Z,12.92
2023-05-15T06:05:51.541Z,13.09
2023-05-15T06:08:18.980Z,13.09
2023-05-15T06:10:46.553Z,13.04
2023-05-15T06:13:15.241Z,13.00
2023-05-15T06:15:42.945Z,13.01
2023-05-15T06:18:10.515Z,13.01
2023-05-15T06:20:38.547Z,13.06
2023-05-15T06:23:06.044Z,13.12
2023-05-15T06:25:33.223Z,13.10
2023-05-15T06:28:01.127Z,13.10
2023-05-15T06:30:28.599Z,13.02
2023-05-15T06:32:56.220Z,13.12
2023-05-15T06:35:26.803Z,13.22
2023-05-15T06:37:54.933Z,13.26
2023-05-15T06:40:25.258Z,13.38
2023-05-15T06:42:53.065Z,13.26
2023-05-15T06:45:20.576Z,13.12
2023-05-15T06:47:48.040Z,13.14
2023-05-15T06:50:15.549Z,13.20
2023-05-15T06:52:43.907Z,13.20
2023-05-15T06:55:13.467Z,13.20
2023-05-15T06:57:41.827Z,13.25
2023-05-15T07:00:10.987Z,13.37
2023-05-15T07:02:38.355Z,13.40
2023-05-15T07:05:07.117Z,13.46
2023-05-15T07:07:34.744Z,13.52
2023-05-15T07:10:02.342Z,13.57
2023-05-15T07:12:29.921Z,13.67
2023-05-15T07:15:03.474Z,13.76
2023-05-15T07:17:33.854Z,13.62
2023-05-15T07:20:01.382Z,13.66
2023-05-15T07:22:29.473Z,13.73
2023-05-15T07:25:02.936Z,13.73
2023-05-15T07:27:31.393Z,13.83
2023-05-15T07:29:58.776Z,13.91
2023-05-15T07:32:26.246Z,13.87
2023-05-15T07:34:53.556Z,13.88
2023-05-15T07:37:21.228Z,13.78
2023-05-15T07:39:48.638Z,13.69
2023-05-15T07:42:18.139Z,13.71
2023-05-15T07:44:48.766Z,13.68
2023-05-15T07:47:17.310Z,13.60
2023-05-15T07:49:44.687Z,13.63
2023-05-15T07:52:12.345Z,13.53
2023-05-15T07:54:42.410Z,13.64
2023-05-15T07:57:15.863Z,13.80
2023-05-15T07:59:43.374Z,13.83
2023-05-15T08:02:10.782Z,13.97
2023-05-15T08:04:38.265Z,14.05
2023-05-15T08:07:07.507Z,14.13
2023-05-15T08:09:35.138Z,14.14
2023-05-15T08:12:21.551Z,14.01
2023-05-15T08:14:56.665Z,14.06
2023-05-15T08:17:25.518Z,14.07
2023-05-15T08:19:54.291Z,14.11
2023-05-15T08:22:21.468Z,14.15
2023-05-15T08:24:49.423Z,14.21
2023-05-15T08:27:16.729Z,14.24
2023-05-15T08:29:45.498Z,14.07
2023-05-15T08:32:12.868Z,14.07
2023-05-15T08:34:40.430Z,14.04
2023-05-15T08:37:07.947Z,13.97
2023-05-15T08:39:35.279Z,13.95
2023-05-15T08:42:35.511Z,13.98
2023-05-15T08:45:03.596Z,14.03
2023-05-15T08:47:36.090Z,14.25
2023-05-15T08:50:07.149Z,14.31
2023-05-15T08:52:35.140Z,14.37
2023-05-15T08:55:04.219Z,14.17
2023-05-15T08:57:33.951Z,14.07
2023-05-15T09:00:09.205Z,14.32
2023-05-15T09:02:37.691Z,14.59
2023-05-15T09:05:08.582Z,14.74
2023-05-15T09:07:36.483Z,14.80
2023-05-15T09:10:11.026Z,14.95
2023-05-15T09:12:44.096Z,14.87
2023-05-15T09:15:18.147Z,14.83
2023-05-15T09:17:46.585Z,14.80
2023-05-15T09:20:35.417Z,14.70
2023-05-15T09:23:05.481Z,14.70
2023-05-15T09:25:44.549Z,14.74
2023-05-15T09:28:34.152Z,14.76
2023-05-15T09:31:04.237Z,14.58
2023-05-15T09:33:39.487Z,14.63
2023-05-15T09:36:09.289Z,14.69
2023-05-15T09:38:48.601Z,14.80
2023-05-15T09:41:26.808Z,14.77
2023-05-15T09:43:57.040Z,14.88
2023-05-15T09:46:24.702Z,14.77
2023-05-15T09:48:56.391Z,14.73
2023-05-15T09:51:24.052Z,14.70
2023-05-15T09:53:54.563Z,14.53
2023-05-15T09:56:22.803Z,14.66
2023-05-15T09:58:54.952Z,14.87
2023-05-15T10:01:24.277Z,15.02
2023-05-15T10:04:02.035Z,15.12
2023-05-15T10:06:37.339Z,15.27
2023-05-15T10:09:05.511Z,15.43
2023-05-15T10:11:40.922Z,15.38
2023-05-15T10:14:11.390Z,15.23
2023-05-15T10:16:40.903Z,15.02
2023-05-15T10:19:18.906Z,15.06
2023-05-15T10:21:48.582Z,15.02
2023-05-15T10:24:19.702Z,14.86
2023-05-15T10:26:48.629Z,14.70
2023-05-15T10:29:19.669Z,14.50
2023-05-15T10:31:49.386Z,14.40
2023-05-15T10:34:19.338Z,14.55
2023-05-15T10:36:50.617Z,14.57
2023-05-15T10:39:21.016Z,14.47
2023-05-15T10:41:51.254Z,14.66
2023-05-15T10:44:19.826Z,15.08
2023-05-15T10:46:48.222Z,15.38
2023-05-15T10:49:15.864Z,15.61
2023-05-15T10:51:43.394Z,15.43
2023-05-15T10:54:10.751Z,15.43
2023-05-15T10:56:40.308Z,15.34
2023-05-15T10:59:11.749Z,14.95
2023-05-15T11:01:41.174Z,14.92
2023-05-15T11:04:19.069Z,14.79
2023-05-15T11:06:50.959Z,14.67
2023-05-15T11:09:28.100Z,14.59
2023-05-15T11:12:20.780Z,14.69
2023-05-15T11:14:57.383Z,14.31
2023-05-15T11:17:24.948Z,13.94
2023-05-15T11:19:53.305Z,13.92
2023-05-15T11:22:23.300Z,13.92
2023-05-15T11:25:10.771Z,13.98
2023-05-15T11:27:42.028Z,14.06
2023-05-15T11:30:22.738Z,14.10
2023-05-15T11:33:11.624Z,14.03
2023-05-15T11:35:40.441Z,14.03
2023-05-15T11:38:15.344Z,13.96
2023-05-15T11:40:58.768Z,13.80
2023-05-15T11:43:32.587Z,13.77
2023-05-15T11:46:12.986Z,13.97
2023-05-15T11:48:45.002Z,14.17
2023-05-15T11:51:21.604Z,14.29
2023-05-15T11:53:54.118Z,14.33
2023-05-15T11:56:24.066Z,14.36
2023-05-15T11:59:01.599Z,14.31
2023-05-15T12:01:48.654Z,14.35
2023-05-15T12:04:17.124Z,14.11
2023-05-15T12:06:47.694Z,14.04
2023-05-15T12:09:17.116Z,13.73
2023-05-15T12:11:54.853Z,13.59
2023-05-15T12:14:30.111Z,13.52
2023-05-15T12:17:07.805Z,13.35
2023-05-15T12:19:37.625Z,13.47
2023-05-15T12:22:08.740Z,13.49
2023-05-15T12:24:40.150Z,13.44
2023-05-15T12:27:10.274Z,13.45
2023-05-15T12:29:38.821Z,13.19
2023-05-15T12:32:08.514Z,13.08
2023-05-15T12:34:37.512Z,12.99
2023-05-15T12:37:07.067Z,13.10
2023-05-15T12:39:34.557Z,13.14
2023-05-15T12:42:01.888Z,13.23
2023-05-15T12:44:32.299Z,13.44
2023-05-15T12:46:59.774Z,13.35
2023-05-15T12:49:28.517Z,13.25
2023-05-15T12:51:55.927Z,13.14
2023-05-15T12:54:24.574Z,13.14
2023-05-15T12:56:52.013Z,13.14
2023-05-15T12:59:20.355Z,13.12
2023-05-15T13:01:47.805Z,13.16
2023-05-15T13:04:16.801Z,13.15
2023-05-15T13:06:46.860Z,13.22
2023-05-15T13:09:21.552Z,13.25
2023-05-15T13:11:49.255Z,13.25
2023-05-15T13:14:21.461Z,13.37
2023-05-15T13:16:48.826Z,13.45
2023-05-15T13:19:17.112Z,13.37
2023-05-15T13:21:46.074Z,13.47
2023-05-15T13:24:13.755Z,13.48
2023-05-15T13:26:41.813Z,13.37
2023-05-15T13:29:09.206Z,13.44
2023-05-15T13:31:36.712Z,13.34
2023-05-15T13:34:04.089Z,13.10
2023-05-15T13:36:31.819Z,13.33
2023-05-15T13:39:00.023Z,13.49
2023-05-15T13:41:27.493Z,13.47
2023-05-15T13:43:54.943Z,13.57
2023-05-15T13:46:23.530Z,13.68
2023-05-15T13:48:51.067Z,13.53
2023-05-15T13:51:19.402Z,13.48
2023-05-15T13:53:46.710Z,13.18
2023-05-15T13:56:14.343Z,13.15
2023-05-15T13:58:42.775Z,13.10
2023-05-15T14:01:10.370Z,12.90
2023-05-15T14:03:37.596Z,12.93
2023-05-15T14:06:06.230Z,12.92
2023-05-15T14:08:34.203Z,12.85
2023-05-15T14:11:02.025Z,12.87
2023-05-15T14:13:33.446Z,12.84
2023-05-15T14:16:01.055Z,12.84
2023-05-15T14:18:31.798Z,12.85
2023-05-15T14:20:59.549Z,12.87
2023-05-15T14:23:27.106Z,13.00
2023-05-15T14:25:54.426Z,13.24
2023-05-15T14:28:22.035Z,13.65
2023-05-15T14:30:49.347Z,13.96
2023-05-15T14:33:16.829Z,14.30
2023-05-15T14:35:44.357Z,14.74
2023-05-15T14:38:12.634Z,15.36
2023-05-15T14:40:43.401Z,15.58
2023-05-15T14:43:12.229Z,15.83
2023-05-15T14:45:39.761Z,15.77
2023-05-15T14:48:07.241Z,15.53
2023-05-15T14:50:34.650Z,15.23
2023-05-15T14:53:02.184Z,15.42
2023-05-15T14:55:29.562Z,15.65
2023-05-15T14:57:58.502Z,16.04
2023-05-15T15:00:26.321Z,15.73
2023-05-15T15:02:54.328Z,15.49
2023-05-15T15:05:23.297Z,15.14
2023-05-15T15:08:11.183Z,14.81
2023-05-15T15:10:40.852Z,14.98
2023-05-15T15:13:10.347Z,14.94
2023-05-15T15:15:38.003Z,14.90
2023-05-15T15:18:05.331Z,14.82
2023-05-15T15:20:33.035Z,14.65
2023-05-15T15:23:00.137Z,14.80
2023-05-15T15:25:28.482Z,14.86
2023-05-15T15:27:58.116Z,14.76
2023-05-15T15:30:26.040Z,14.88
2023-05-15T15:32:56.099Z,14.85
2023-05-15T15:35:24.853Z,14.74
2023-05-15T15:37:53.557Z,14.55
2023-05-15T15:40:24.335Z,14.43
2023-05-15T15:42:54.495Z,14.32
2023-05-15T15:45:21.743Z,14.23
2023-05-15T15:47:49.289Z,14.26
2023-05-15T15:50:17.599Z,14.12
2023-05-15T15:52:45.149Z,14.15
2023-05-15T15:55:12.537Z,13.81
2023-05-15T15:57:40.119Z,13.73
2023-05-15T16:00:10.044Z,13.56
2023-05-15T16:02:37.583Z,13.53
2023-05-15T16:05:05.263Z,13.47
2023-05-15T16:07:39.524Z,13.24
2023-05-15T16:10:13.122Z,13.19
2023-05-15T16:12:42.790Z,12.98
2023-05-15T16:17:42.223Z,12.89
2023-05-15T16:20:11.633Z,12.84
2023-05-15T16:22:41.989Z,12.80
2023-05-15T16:25:15.360Z,12.92
2023-05-15T16:27:42.838Z,12.75
2023-05-15T16:30:11.840Z,12.68
2023-05-15T16:32:39.928Z,12.64
2023-05-15T16:35:08.017Z,12.74
2023-05-15T16:37:35.227Z,12.75
2023-05-15T16:40:03.170Z,12.78
2023-05-15T16:42:34.943Z,12.84
2023-05-15T16:45:02.183Z,12.99
2023-05-15T16:47:29.683Z,12.85
2023-05-15T16:49:58.204Z,12.94
2023-05-15T16:52:25.691Z,12.93
2023-05-15T16:54:55.155Z,13.05
2023-05-15T16:57:23.581Z,13.21
2023-05-15T16:59:51.118Z,13.41
2023-05-15T17:02:19.646Z,13.37
2023-05-15T17:04:53.594Z,13.42
2023-05-15T17:07:21.758Z,13.33
2023-05-15T17:09:50.046Z,13.32
2023-05-15T17:12:17.596Z,13.25
2023-05-15T17:14:45.161Z,13.37
2023-05-15T17:17:15.120Z,13.32
2023-05-15T17:19:42.452Z,13.21
2023-05-15T17:22:09.906Z,13.25
2023-05-15T17:24:50.182Z,13.17
2023-05-15T17:27:20.805Z,13.27
2023-05-15T17:29:49.517Z,13.37
2023-05-15T17:32:18.286Z,13.36
2023-05-15T17:34:46.427Z,13.16
2023-05-15T17:37:15.154Z,13.13
2023-05-15T17:39:43.168Z,13.20
2023-05-15T17:42:11.906Z,13.23
2023-05-15T17:44:39.507Z,13.27
2023-05-15T17:47:12.859Z,13.22
2023-05-15T17:49:42.352Z,13.23
2023-05-15T17:52:10.939Z,13.10
2023-05-15T17:54:38.217Z,13.10
2023-05-15T17:57:06.739Z,12.98
2023-05-15T17:59:34.504Z,12.84
2023-05-15T18:02:03.273Z,12.83
2023-05-15T18:04:30.729Z,12.65
2023-05-15T18:06:59.302Z,12.59
2023-05-15T18:09:28.695Z,12.54
2023-05-15T18:11:58.228Z,12.48
2023-05-15T18:14:25.727Z,12.36
2023-05-15T18:16:53.026Z,12.63
2023-05-15T18:19:20.761Z,12.46
2023-05-15T18:21:48.528Z,12.53
2023-05-15T18:24:17.155Z,12.47
2023-05-15T18:26:45.469Z,12.29
2023-05-15T18:29:13.116Z,12.28
2023-05-15T18:31:40.356Z,12.14
2023-05-15T18:34:08.776Z,12.13
2023-05-15T18:36:36.251Z,12.02
2023-05-15T18:39:04.068Z,11.99
2023-05-15T18:41:31.180Z,11.94
2023-05-15T18:43:59.712Z,11.66
2023-05-15T18:46:28.616Z,11.56
2023-05-15T18:48:56.308Z,11.48
2023-05-15T18:51:24.512Z,11.65
2023-05-15T18:53:52.255Z,11.66
2023-05-15T18:56:19.548Z,11.65
2023-05-15T18:58:47.697Z,11.63
2023-05-15T19:01:15.988Z,11.56
2023-05-15T19:03:43.261Z,11.50
2023-05-15T19:06:13.715Z,11.44
2023-05-15T19:08:42.992Z,11.47
2023-05-15T19:11:10.385Z,11.49
2023-05-15T19:13:38.784Z,11.47
2023-05-15T19:16:08.668Z,11.35
2023-05-15T19:18:35.969Z,11.39
2023-05-15T19:21:05.320Z,11.32
2023-05-15T19:23:32.968Z,11.23
2023-05-15T19:26:00.389Z,11.18
2023-05-15T19:28:28.238Z,11.15
2023-05-15T19:30:55.737Z,11.12
2023-05-15T19:33:23.441Z,11.04
2023-05-15T19:35:50.573Z,10.95
2023-05-15T19:38:19.481Z,10.90
2023-05-15T19:40:46.993Z,10.81
2023-05-15T19:43:15.681Z,10.75
2023-05-15T19:45:43.787Z,10.65
2023-05-15T19:48:12.856Z,10.69
2023-05-15T19:50:40.586Z,10.69
2023-05-15T19:53:14.296Z,10.52
2023-05-15T19:55:42.517Z,10.49
2023-05-15T19:58:11.245Z,10.69
2023-05-15T20:00:38.664Z,10.84
2023-05-15T20:03:06.128Z,10.70
2023-05-15T20:05:33.913Z,10.87
2023-05-15T20:08:01.332Z,10.88
2023-05-15T20:10:28.789Z,10.96
2023-05-15T20:12:56.368Z,11.03
2023-05-15T20:15:25.876Z,10.82
2023-05-15T20:17:54.003Z,10.76
2023-05-15T20:20:33.140Z,10.87
2023-05-15T20:23:01.427Z,10.83
2023-05-15T20:25:29.815Z,10.73
2023-05-15T20:28:05.565Z,10.74
2023-05-15T20:30:33.174Z,10.83
2023-05-15T20:33:00.782Z,10.94
2023-05-15T20:35:30.016Z,10.99
2023-05-15T20:38:00.170Z,10.96
2023-05-15T20:40:27.937Z,10.99
2023-05-15T20:43:07.717Z,10.98
2023-05-15T20:45:37.279Z,10.91
2023-05-15T20:48:05.845Z,10.87
2023-05-15T20:50:33.139Z,10.84
2023-05-15T20:53:00.648Z,10.83
2023-05-15T20:55:29.148Z,10.83
2023-05-15T20:57:56.661Z,10.86
2023-05-15T21:00:24.255Z,10.83
2023-05-15T21:02:52.125Z,10.81
2023-05-15T21:05:19.432Z,10.75
2023-05-15T21:07:46.912Z,10.69
2023-05-15T21:10:14.371Z,10.36
2023-05-15T21:12:42.882Z,10.47
2023-05-15T21:15:10.494Z,10.21
2023-05-15T21:17:37.813Z,9.99
2023-05-15T21:20:05.677Z,10.14
2023-05-15T21:22:33.598Z,10.06
2023-05-15T21:25:01.275Z,10.15
2023-05-15T21:27:28.680Z,9.77
2023-05-15T21:30:04.581Z,9.75
2023-05-15T21:32:32.918Z,9.77
2023-05-15T21:35:02.320Z,9.59
2023-05-15T21:37:29.806Z,9.48
2023-05-15T21:39:58.194Z,9.79
2023-05-15T21:42:26.743Z,9.77
2023-05-15T21:45:00.330Z,9.69
2023-05-15T21:47:27.701Z,9.47
2023-05-15T21:49:55.099Z,9.38
2023-05-15T21:52:22.861Z,9.38
2023-05-15T21:54:50.340Z,9.24
2023-05-15T21:57:24.840Z,9.36
2023-05-15T21:59:53.199Z,9.18
2023-05-15T22:02:22.829Z,9.16
2023-05-15T22:04:50.166Z,9.03
2023-05-15T22:07:17.830Z,9.15
2023-05-15T22:09:45.383Z,9.38
2023-05-15T22:12:12.586Z,9.41
2023-05-15T22:14:54.522Z,9.31
2023-05-15T22:17:30.875Z,9.50
2023-05-15T22:20:07.929Z,9.17
2023-05-15T22:22:36.260Z,9.07
2023-05-15T22:25:04.096Z,8.96
2023-05-15T22:27:32.146Z,8.87
2023-05-15T22:29:59.870Z,8.88
2023-05-15T22:32:27.112Z,8.98
2023-05-15T22:34:56.119Z,8.88
2023-05-15T22:37:25.501Z,9.18
2023-05-15T22:39:59.002Z,9.18
2023-05-15T22:42:28.375Z,9.19
2023-05-15T22:44:57.741Z,9.16
2023-05-15T22:47:38.430Z,9.09
2023-05-15T22:50:06.253Z,9.00
2023-05-15T22:52:33.801Z,9.03
2023-05-15T22:55:01.158Z,9.19
2023-05-15T22:57:29.326Z,9.21
2023-05-15T22:59:56.702Z,9.17
2023-05-15T23:02:25.118Z,9.15
2023-05-15T23:04:53.553Z,9.31
2023-05-15T23:07:21.002Z,9.30
2023-05-15T23:09:48.496Z,9.35
2023-05-15T23:12:15.919Z,9.25
2023-05-15T23:14:45.503Z,9.34
2023-05-15T23:17:13.020Z,9.41
2023-05-15T23:19:41.067Z,9.40
2023-05-15T23:22:12.719Z,9.39
2023-05-15T23:24:40.935Z,9.33
2023-05-15T23:27:09.429Z,9.36
2023-05-15T23:29:36.944Z,9.25
2023-05-15T23:32:07.644Z,9.22
2023-05-15T23:34:34.829Z,9.18
2023-05-15T23:37:02.512Z,9.20
2023-05-15T23:39:29.774Z,9.04
2023-05-15T23:41:57.566Z,9.03
2023-05-15T23:44:24.686Z,9.06
2023-05-15T23:46:52.064Z,9.07
2023-05-15T23:49:19.552Z,9.19
2023-05-15T23:51:47.145Z,9.14
2023-05-15T23:54:14.494Z,9.06
2023-05-15T23:56:41.927Z,9.00
2023-05-15T23:59:09.458Z,9.00
